sensor_id;sensor_type;location;lat;lon;timestamp;P1;durP1;ratioP1;P2;durP2;ratioP2
15002;SDS011;7597;53.590;10.020;2022-08-04T00:01:02;6.40;;;5.28;;
15002;SDS011;7597;53.590;10.020;2022-08-04T00:03:32;11.15;;;5.43;;
15002;SDS011;7597;53.590;10.020;2022-08-04T00:05:59;7.07;;;4.90;;
15002;SDS011;7597;53.590;10.020;2022-08-04T00:08:32;8.13;;;4.50;;
15002;SDS011;7597;53.590;10.020;2022-08-04T00:11:14;7.93;;;5.05;;
15002;SDS011;7597;53.590;10.020;2022-08-04T00:13:41;6.82;;;4.65;;
15002;SDS011;7597;53.590;10.020;2022-08-04T00:16:07;7.85;;;5.05;;
15002;SDS011;7597;53.590;10.020;2022-08-04T00:18:34;7.97;;;4.90;;
15002;SDS011;7597;53.590;10.020;2022-08-04T00:21:03;6.90;;;4.95;;
15002;SDS011;7597;53.590;10.020;2022-08-04T00:23:26;13.43;;;5.05;;
15002;SDS011;7597;53.590;10.020;2022-08-04T00:25:53;8.57;;;4.90;;
15002;SDS011;7597;53.590;10.020;2022-08-04T00:28:20;7.22;;;4.72;;
15002;SDS011;7597;53.590;10.020;2022-08-04T00:30:46;8.43;;;4.62;;
15002;SDS011;7597;53.590;10.020;2022-08-04T00:33:17;6.57;;;4.65;;
15002;SDS011;7597;53.590;10.020;2022-08-04T00:35:39;7.72;;;5.00;;
15002;SDS011;7597;53.590;10.020;2022-08-04T00:38:06;9.23;;;5.10;;
15002;SDS011;7597;53.590;10.020;2022-08-04T00:40:39;7.87;;;5.15;;
15002;SDS011;7597;53.590;10.020;2022-08-04T00:43:05;7.62;;;4.78;;
15002;SDS011;7597;53.590;10.020;2022-08-04T00:45:51;7.25;;;5.05;;
15002;SDS011;7597;53.590;10.020;2022-08-04T00:48:20;9.10;;;5.22;;
15002;SDS011;7597;53.590;10.020;2022-08-04T00:50:49;8.65;;;5.18;;
15002;SDS011;7597;53.590;10.020;2022-08-04T00:53:13;7.12;;;5.53;;
15002;SDS011;7597;53.590;10.020;2022-08-04T00:58:28;6.93;;;5.05;;
15002;SDS011;7597;53.590;10.020;2022-08-04T01:00:59;7.62;;;5.07;;
15002;SDS011;7597;53.590;10.020;2022-08-04T01:03:31;6.05;;;5.28;;
15002;SDS011;7597;53.590;10.020;2022-08-04T01:06:04;10.13;;;5.95;;
15002;SDS011;7597;53.590;10.020;2022-08-04T01:08:47;6.80;;;4.85;;
15002;SDS011;7597;53.590;10.020;2022-08-04T01:16:47;7.18;;;5.30;;
15002;SDS011;7597;53.590;10.020;2022-08-04T01:19:27;9.00;;;5.30;;
15002;SDS011;7597;53.590;10.020;2022-08-04T01:25:11;8.65;;;5.43;;
15002;SDS011;7597;53.590;10.020;2022-08-04T01:27:46;7.55;;;4.90;;
15002;SDS011;7597;53.590;10.020;2022-08-04T01:30:26;6.10;;;4.82;;
15002;SDS011;7597;53.590;10.020;2022-08-04T01:32:57;9.32;;;5.03;;
15002;SDS011;7597;53.590;10.020;2022-08-04T01:40:50;9.55;;;5.25;;
15002;SDS011;7597;53.590;10.020;2022-08-04T01:43:17;7.53;;;5.25;;
15002;SDS011;7597;53.590;10.020;2022-08-04T01:45:43;9.88;;;5.18;;
15002;SDS011;7597;53.590;10.020;2022-08-04T01:48:10;6.97;;;5.10;;
15002;SDS011;7597;53.590;10.020;2022-08-04T01:50:37;7.95;;;5.50;;
15002;SDS011;7597;53.590;10.020;2022-08-04T01:53:03;10.23;;;5.35;;
15002;SDS011;7597;53.590;10.020;2022-08-04T01:55:30;8.60;;;5.18;;
15002;SDS011;7597;53.590;10.020;2022-08-04T01:57:58;8.65;;;5.68;;
15002;SDS011;7597;53.590;10.020;2022-08-04T02:00:26;7.72;;;5.20;;
15002;SDS011;7597;53.590;10.020;2022-08-04T02:02:52;7.97;;;5.10;;
15002;SDS011;7597;53.590;10.020;2022-08-04T02:05:19;6.87;;;5.00;;
15002;SDS011;7597;53.590;10.020;2022-08-04T02:07:52;7.22;;;4.72;;
15002;SDS011;7597;53.590;10.020;2022-08-04T02:10:22;6.35;;;4.90;;
15002;SDS011;7597;53.590;10.020;2022-08-04T02:12:58;8.30;;;5.00;;
15002;SDS011;7597;53.590;10.020;2022-08-04T02:15:29;7.45;;;5.20;;
15002;SDS011;7597;53.590;10.020;2022-08-04T02:17:59;7.10;;;4.95;;
15002;SDS011;7597;53.590;10.020;2022-08-04T02:20:43;8.20;;;4.85;;
15002;SDS011;7597;53.590;10.020;2022-08-04T02:23:13;7.45;;;4.72;;
15002;SDS011;7597;53.590;10.020;2022-08-04T02:25:38;6.37;;;4.32;;
15002;SDS011;7597;53.590;10.020;2022-08-04T02:28:16;6.50;;;5.10;;
15002;SDS011;7597;53.590;10.020;2022-08-04T02:30:42;6.93;;;4.93;;
15002;SDS011;7597;53.590;10.020;2022-08-04T02:33:07;9.80;;;5.22;;
15002;SDS011;7597;53.590;10.020;2022-08-04T02:35:34;7.85;;;4.82;;
15002;SDS011;7597;53.590;10.020;2022-08-04T02:38:10;8.52;;;5.30;;
15002;SDS011;7597;53.590;10.020;2022-08-04T02:40:36;7.15;;;4.43;;
15002;SDS011;7597;53.590;10.020;2022-08-04T02:43:03;8.27;;;5.10;;
15002;SDS011;7597;53.590;10.020;2022-08-04T02:45:30;9.43;;;5.47;;
15002;SDS011;7597;53.590;10.020;2022-08-04T02:47:56;6.43;;;5.03;;
15002;SDS011;7597;53.590;10.020;2022-08-04T02:50:23;6.97;;;5.10;;
15002;SDS011;7597;53.590;10.020;2022-08-04T02:52:50;6.82;;;5.00;;
15002;SDS011;7597;53.590;10.020;2022-08-04T02:55:16;6.72;;;4.72;;
15002;SDS011;7597;53.590;10.020;2022-08-04T02:57:43;9.25;;;4.75;;
15002;SDS011;7597;53.590;10.020;2022-08-04T03:00:10;6.82;;;4.87;;
15002;SDS011;7597;53.590;10.020;2022-08-04T03:05:18;6.28;;;4.75;;
15002;SDS011;7597;53.590;10.020;2022-08-04T03:07:51;10.77;;;5.47;;
15002;SDS011;7597;53.590;10.020;2022-08-04T03:10:24;7.28;;;5.03;;
15002;SDS011;7597;53.590;10.020;2022-08-04T03:15:49;11.65;;;5.55;;
15002;SDS011;7597;53.590;10.020;2022-08-04T03:18:21;9.07;;;5.28;;
15002;SDS011;7597;53.590;10.020;2022-08-04T03:26:43;8.05;;;5.07;;
15002;SDS011;7597;53.590;10.020;2022-08-04T03:34:36;7.78;;;4.97;;
15002;SDS011;7597;53.590;10.020;2022-08-04T03:37:18;6.60;;;4.45;;
15002;SDS011;7597;53.590;10.020;2022-08-04T03:39:51;7.07;;;5.55;;
15002;SDS011;7597;53.590;10.020;2022-08-04T03:50:33;6.53;;;4.85;;
15002;SDS011;7597;53.590;10.020;2022-08-04T03:53:05;7.25;;;5.20;;
15002;SDS011;7597;53.590;10.020;2022-08-04T03:55:53;12.88;;;6.07;;
15002;SDS011;7597;53.590;10.020;2022-08-04T03:58:30;8.27;;;5.10;;
15002;SDS011;7597;53.590;10.020;2022-08-04T04:01:17;7.00;;;5.12;;
15002;SDS011;7597;53.590;10.020;2022-08-04T04:03:51;10.05;;;6.05;;
15002;SDS011;7597;53.590;10.020;2022-08-04T04:06:34;7.43;;;5.07;;
15002;SDS011;7597;53.590;10.020;2022-08-04T04:09:04;6.85;;;5.45;;
15002;SDS011;7597;53.590;10.020;2022-08-04T04:11:44;9.38;;;5.10;;
15002;SDS011;7597;53.590;10.020;2022-08-04T04:14:11;9.18;;;5.40;;
15002;SDS011;7597;53.590;10.020;2022-08-04T04:16:57;7.60;;;5.55;;
15002;SDS011;7597;53.590;10.020;2022-08-04T04:19:52;7.53;;;5.03;;
15002;SDS011;7597;53.590;10.020;2022-08-04T04:22:40;13.35;;;5.82;;
15002;SDS011;7597;53.590;10.020;2022-08-04T04:25:03;7.45;;;5.10;;
15002;SDS011;7597;53.590;10.020;2022-08-04T04:28:20;12.70;;;5.87;;
15002;SDS011;7597;53.590;10.020;2022-08-04T04:30:30;8.25;;;5.62;;
15002;SDS011;7597;53.590;10.020;2022-08-04T04:33:30;10.55;;;5.72;;
15002;SDS011;7597;53.590;10.020;2022-08-04T04:36:34;6.57;;;5.20;;
15002;SDS011;7597;53.590;10.020;2022-08-04T04:38:44;7.35;;;5.50;;
15002;SDS011;7597;53.590;10.020;2022-08-04T04:41:20;8.73;;;5.05;;
15002;SDS011;7597;53.590;10.020;2022-08-04T04:43:59;6.95;;;5.37;;
15002;SDS011;7597;53.590;10.020;2022-08-04T04:46:33;8.48;;;4.85;;
15002;SDS011;7597;53.590;10.020;2022-08-04T04:51:49;9.50;;;5.62;;
15002;SDS011;7597;53.590;10.020;2022-08-04T04:54:33;7.47;;;5.15;;
15002;SDS011;7597;53.590;10.020;2022-08-04T04:57:06;6.72;;;4.97;;
15002;SDS011;7597;53.590;10.020;2022-08-04T04:59:48;9.20;;;5.35;;
15002;SDS011;7597;53.590;10.020;2022-08-04T05:10:57;8.38;;;4.65;;
15002;SDS011;7597;53.590;10.020;2022-08-04T05:13:48;6.82;;;4.72;;
15002;SDS011;7597;53.590;10.020;2022-08-04T05:16:26;8.13;;;4.62;;
15002;SDS011;7597;53.590;10.020;2022-08-04T05:19:02;5.90;;;4.47;;
15002;SDS011;7597;53.590;10.020;2022-08-04T05:21:32;5.32;;;4.82;;
15002;SDS011;7597;53.590;10.020;2022-08-04T05:23:55;5.68;;;4.18;;
15002;SDS011;7597;53.590;10.020;2022-08-04T05:26:22;5.35;;;4.60;;
15002;SDS011;7597;53.590;10.020;2022-08-04T05:28:50;8.45;;;4.30;;
15002;SDS011;7597;53.590;10.020;2022-08-04T05:31:18;7.53;;;4.60;;
15002;SDS011;7597;53.590;10.020;2022-08-04T05:33:46;9.77;;;4.80;;
15002;SDS011;7597;53.590;10.020;2022-08-04T05:36:14;8.82;;;4.60;;
15002;SDS011;7597;53.590;10.020;2022-08-04T05:38:42;7.45;;;4.60;;
15002;SDS011;7597;53.590;10.020;2022-08-04T05:41:09;9.02;;;4.55;;
15002;SDS011;7597;53.590;10.020;2022-08-04T05:43:36;10.27;;;4.40;;
15002;SDS011;7597;53.590;10.020;2022-08-04T05:46:03;5.47;;;3.90;;
15002;SDS011;7597;53.590;10.020;2022-08-04T05:48:31;5.55;;;3.80;;
15002;SDS011;7597;53.590;10.020;2022-08-04T05:50:56;8.25;;;3.60;;
15002;SDS011;7597;53.590;10.020;2022-08-04T05:53:23;6.62;;;3.58;;
15002;SDS011;7597;53.590;10.020;2022-08-04T05:55:49;7.28;;;3.35;;
15002;SDS011;7597;53.590;10.020;2022-08-04T05:58:16;6.10;;;3.80;;
15002;SDS011;7597;53.590;10.020;2022-08-04T06:00:42;8.18;;;3.83;;
15002;SDS011;7597;53.590;10.020;2022-08-04T06:03:09;6.43;;;3.67;;
15002;SDS011;7597;53.590;10.020;2022-08-04T06:05:36;8.40;;;3.42;;
15002;SDS011;7597;53.590;10.020;2022-08-04T06:08:03;9.98;;;3.87;;
15002;SDS011;7597;53.590;10.020;2022-08-04T06:10:30;6.70;;;3.53;;
15002;SDS011;7597;53.590;10.020;2022-08-04T06:12:57;6.20;;;4.10;;
15002;SDS011;7597;53.590;10.020;2022-08-04T06:15:24;8.75;;;3.90;;
15002;SDS011;7597;53.590;10.020;2022-08-04T06:17:52;11.88;;;4.32;;
15002;SDS011;7597;53.590;10.020;2022-08-04T06:20:18;9.05;;;3.65;;
15002;SDS011;7597;53.590;10.020;2022-08-04T06:22:45;9.98;;;3.60;;
15002;SDS011;7597;53.590;10.020;2022-08-04T06:25:13;7.05;;;3.72;;
15002;SDS011;7597;53.590;10.020;2022-08-04T06:27:38;8.68;;;3.67;;
15002;SDS011;7597;53.590;10.020;2022-08-04T06:30:04;7.65;;;3.80;;
15002;SDS011;7597;53.590;10.020;2022-08-04T06:32:32;12.52;;;3.78;;
15002;SDS011;7597;53.590;10.020;2022-08-04T06:35:03;8.60;;;4.15;;
15002;SDS011;7597;53.590;10.020;2022-08-04T06:37:29;8.05;;;3.83;;
15002;SDS011;7597;53.590;10.020;2022-08-04T06:39:56;6.97;;;3.87;;
15002;SDS011;7597;53.590;10.020;2022-08-04T06:42:24;10.18;;;4.43;;
15002;SDS011;7597;53.590;10.020;2022-08-04T06:44:51;8.27;;;3.75;;
15002;SDS011;7597;53.590;10.020;2022-08-04T06:47:17;9.48;;;3.53;;
15002;SDS011;7597;53.590;10.020;2022-08-04T06:49:44;9.10;;;3.70;;
15002;SDS011;7597;53.590;10.020;2022-08-04T06:52:12;7.00;;;3.60;;
15002;SDS011;7597;53.590;10.020;2022-08-04T06:54:38;6.65;;;3.40;;
15002;SDS011;7597;53.590;10.020;2022-08-04T06:57:05;8.15;;;3.45;;
15002;SDS011;7597;53.590;10.020;2022-08-04T06:59:32;7.93;;;3.60;;
15002;SDS011;7597;53.590;10.020;2022-08-04T07:01:59;6.00;;;3.67;;
15002;SDS011;7597;53.590;10.020;2022-08-04T07:04:26;6.25;;;3.40;;
15002;SDS011;7597;53.590;10.020;2022-08-04T07:06:54;10.65;;;3.87;;
15002;SDS011;7597;53.590;10.020;2022-08-04T07:09:22;12.55;;;4.12;;
15002;SDS011;7597;53.590;10.020;2022-08-04T07:11:49;11.70;;;4.03;;
15002;SDS011;7597;53.590;10.020;2022-08-04T07:14:15;13.30;;;4.30;;
15002;SDS011;7597;53.590;10.020;2022-08-04T07:16:43;9.95;;;3.95;;
15002;SDS011;7597;53.590;10.020;2022-08-04T07:19:10;7.12;;;3.55;;
15002;SDS011;7597;53.590;10.020;2022-08-04T07:21:36;11.25;;;3.75;;
15002;SDS011;7597;53.590;10.020;2022-08-04T07:24:04;9.98;;;3.72;;
15002;SDS011;7597;53.590;10.020;2022-08-04T07:26:31;7.85;;;3.20;;
15002;SDS011;7597;53.590;10.020;2022-08-04T07:28:58;9.10;;;3.70;;
15002;SDS011;7597;53.590;10.020;2022-08-04T07:31:25;8.68;;;3.83;;
15002;SDS011;7597;53.590;10.020;2022-08-04T07:33:51;7.95;;;3.60;;
15002;SDS011;7597;53.590;10.020;2022-08-04T07:36:18;5.87;;;3.30;;
15002;SDS011;7597;53.590;10.020;2022-08-04T07:38:45;8.15;;;3.80;;
15002;SDS011;7597;53.590;10.020;2022-08-04T07:41:19;8.35;;;3.70;;
15002;SDS011;7597;53.590;10.020;2022-08-04T07:43:44;10.27;;;3.45;;
15002;SDS011;7597;53.590;10.020;2022-08-04T07:46:11;8.18;;;3.28;;
15002;SDS011;7597;53.590;10.020;2022-08-04T07:48:39;5.60;;;3.03;;
15002;SDS011;7597;53.590;10.020;2022-08-04T07:51:06;9.75;;;3.37;;
15002;SDS011;7597;53.590;10.020;2022-08-04T07:53:33;9.05;;;3.55;;
15002;SDS011;7597;53.590;10.020;2022-08-04T07:56:00;7.15;;;3.20;;
15002;SDS011;7597;53.590;10.020;2022-08-04T07:58:26;10.38;;;3.60;;
15002;SDS011;7597;53.590;10.020;2022-08-04T08:00:53;8.95;;;4.00;;
15002;SDS011;7597;53.590;10.020;2022-08-04T08:03:20;10.48;;;3.65;;
15002;SDS011;7597;53.590;10.020;2022-08-04T08:05:46;6.62;;;3.25;;
15002;SDS011;7597;53.590;10.020;2022-08-04T08:08:13;6.95;;;3.17;;
15002;SDS011;7597;53.590;10.020;2022-08-04T08:10:44;9.68;;;3.58;;
15002;SDS011;7597;53.590;10.020;2022-08-04T08:13:06;6.80;;;3.37;;
15002;SDS011;7597;53.590;10.020;2022-08-04T08:15:33;7.78;;;2.80;;
15002;SDS011;7597;53.590;10.020;2022-08-04T08:18:00;7.75;;;3.30;;
15002;SDS011;7597;53.590;10.020;2022-08-04T08:20:28;8.07;;;3.30;;
15002;SDS011;7597;53.590;10.020;2022-08-04T08:22:54;10.25;;;3.25;;
15002;SDS011;7597;53.590;10.020;2022-08-04T08:25:23;5.37;;;3.05;;
15002;SDS011;7597;53.590;10.020;2022-08-04T08:27:50;9.50;;;3.00;;
15002;SDS011;7597;53.590;10.020;2022-08-04T08:30:17;6.15;;;2.97;;
15002;SDS011;7597;53.590;10.020;2022-08-04T08:32:43;5.72;;;2.95;;
15002;SDS011;7597;53.590;10.020;2022-08-04T08:35:10;6.85;;;3.40;;
15002;SDS011;7597;53.590;10.020;2022-08-04T08:37:39;4.32;;;2.92;;
15002;SDS011;7597;53.590;10.020;2022-08-04T08:42:59;6.25;;;2.90;;
15002;SDS011;7597;53.590;10.020;2022-08-04T08:45:37;6.10;;;3.22;;
15002;SDS011;7597;53.590;10.020;2022-08-04T08:53:29;5.65;;;2.92;;
15002;SDS011;7597;53.590;10.020;2022-08-04T09:04:03;4.25;;;2.83;;
15002;SDS011;7597;53.590;10.020;2022-08-04T09:06:45;7.47;;;2.97;;
15002;SDS011;7597;53.590;10.020;2022-08-04T09:09:13;4.32;;;3.20;;
15002;SDS011;7597;53.590;10.020;2022-08-04T09:14:19;5.75;;;3.53;;
15002;SDS011;7597;53.590;10.020;2022-08-04T09:16:47;7.18;;;3.10;;
15002;SDS011;7597;53.590;10.020;2022-08-04T09:21:52;5.30;;;3.00;;
15002;SDS011;7597;53.590;10.020;2022-08-04T09:24:25;9.43;;;3.95;;
15002;SDS011;7597;53.590;10.020;2022-08-04T09:26:55;9.20;;;3.20;;
15002;SDS011;7597;53.590;10.020;2022-08-04T09:32:11;6.45;;;3.00;;
15002;SDS011;7597;53.590;10.020;2022-08-04T09:34:50;5.07;;;3.08;;
15002;SDS011;7597;53.590;10.020;2022-08-04T09:37:32;4.50;;;2.87;;
15002;SDS011;7597;53.590;10.020;2022-08-04T09:42:44;5.43;;;2.97;;
15002;SDS011;7597;53.590;10.020;2022-08-04T09:45:28;6.60;;;2.72;;
15002;SDS011;7597;53.590;10.020;2022-08-04T09:48:10;5.18;;;3.08;;
15002;SDS011;7597;53.590;10.020;2022-08-04T09:50:37;4.87;;;3.20;;
15002;SDS011;7597;53.590;10.020;2022-08-04T09:53:41;3.33;;;2.67;;
15002;SDS011;7597;53.590;10.020;2022-08-04T09:56:07;4.95;;;2.85;;
15002;SDS011;7597;53.590;10.020;2022-08-04T09:58:39;3.20;;;2.45;;
15002;SDS011;7597;53.590;10.020;2022-08-04T10:01:21;4.40;;;2.75;;
15002;SDS011;7597;53.590;10.020;2022-08-04T10:03:49;6.28;;;3.25;;
15002;SDS011;7597;53.590;10.020;2022-08-04T10:09:08;3.53;;;2.90;;
15002;SDS011;7597;53.590;10.020;2022-08-04T10:12:02;5.87;;;3.12;;
15002;SDS011;7597;53.590;10.020;2022-08-04T10:17:18;3.15;;;2.85;;
15002;SDS011;7597;53.590;10.020;2022-08-04T10:19:41;7.82;;;3.50;;
15002;SDS011;7597;53.590;10.020;2022-08-04T10:22:14;5.72;;;3.08;;
15002;SDS011;7597;53.590;10.020;2022-08-04T10:30:05;7.25;;;2.83;;
15002;SDS011;7597;53.590;10.020;2022-08-04T10:32:33;5.10;;;3.40;;
15002;SDS011;7597;53.590;10.020;2022-08-04T10:37:41;3.47;;;3.00;;
15002;SDS011;7597;53.590;10.020;2022-08-04T10:40:09;3.62;;;3.33;;
15002;SDS011;7597;53.590;10.020;2022-08-04T10:42:43;4.95;;;2.97;;
15002;SDS011;7597;53.590;10.020;2022-08-04T10:45:13;3.90;;;3.12;;
15002;SDS011;7597;53.590;10.020;2022-08-04T10:47:43;5.43;;;3.47;;
15002;SDS011;7597;53.590;10.020;2022-08-04T10:50:09;3.80;;;3.40;;
15002;SDS011;7597;53.590;10.020;2022-08-04T10:52:41;4.65;;;3.40;;
15002;SDS011;7597;53.590;10.020;2022-08-04T10:55:16;3.80;;;3.05;;
15002;SDS011;7597;53.590;10.020;2022-08-04T10:57:49;5.03;;;3.58;;
15002;SDS011;7597;53.590;10.020;2022-08-04T11:00:22;4.75;;;3.33;;
15002;SDS011;7597;53.590;10.020;2022-08-04T11:05:40;6.25;;;3.00;;
15002;SDS011;7597;53.590;10.020;2022-08-04T11:08:14;3.90;;;3.05;;
15002;SDS011;7597;53.590;10.020;2022-08-04T11:10:42;3.28;;;2.85;;
15002;SDS011;7597;53.590;10.020;2022-08-04T11:13:17;4.37;;;2.78;;
15002;SDS011;7597;53.590;10.020;2022-08-04T11:15:47;5.22;;;2.90;;
15002;SDS011;7597;53.590;10.020;2022-08-04T11:18:15;3.53;;;2.90;;
15002;SDS011;7597;53.590;10.020;2022-08-04T11:20:41;5.18;;;3.25;;
15002;SDS011;7597;53.590;10.020;2022-08-04T11:23:10;4.50;;;3.15;;
15002;SDS011;7597;53.590;10.020;2022-08-04T11:25:43;3.30;;;3.00;;
15002;SDS011;7597;53.590;10.020;2022-08-04T11:28:17;4.43;;;2.92;;
15002;SDS011;7597;53.590;10.020;2022-08-04T11:30:45;2.80;;;2.60;;
15002;SDS011;7597;53.590;10.020;2022-08-04T11:36:09;4.53;;;2.80;;
15002;SDS011;7597;53.590;10.020;2022-08-04T11:38:37;3.83;;;3.35;;
15002;SDS011;7597;53.590;10.020;2022-08-04T11:41:04;3.87;;;3.03;;
15002;SDS011;7597;53.590;10.020;2022-08-04T11:43:34;3.90;;;2.78;;
15002;SDS011;7597;53.590;10.020;2022-08-04T11:46:00;4.03;;;2.90;;
15002;SDS011;7597;53.590;10.020;2022-08-04T11:48:28;3.40;;;2.60;;
15002;SDS011;7597;53.590;10.020;2022-08-04T11:50:56;3.78;;;2.90;;
15002;SDS011;7597;53.590;10.020;2022-08-04T11:53:24;4.20;;;3.25;;
15002;SDS011;7597;53.590;10.020;2022-08-04T11:55:53;5.03;;;3.00;;
15002;SDS011;7597;53.590;10.020;2022-08-04T11:58:21;3.25;;;2.95;;
15002;SDS011;7597;53.590;10.020;2022-08-04T12:00:54;3.65;;;3.08;;
15002;SDS011;7597;53.590;10.020;2022-08-04T12:03:31;4.12;;;3.20;;
15002;SDS011;7597;53.590;10.020;2022-08-04T12:06:25;3.28;;;3.00;;
15002;SDS011;7597;53.590;10.020;2022-08-04T12:11:45;6.20;;;2.75;;
15002;SDS011;7597;53.590;10.020;2022-08-04T12:14:25;2.60;;;2.40;;
15002;SDS011;7597;53.590;10.020;2022-08-04T12:16:55;2.72;;;2.50;;
15002;SDS011;7597;53.590;10.020;2022-08-04T12:19:35;2.70;;;2.50;;
15002;SDS011;7597;53.590;10.020;2022-08-04T12:22:26;2.40;;;2.30;;
15002;SDS011;7597;53.590;10.020;2022-08-04T12:30:10;3.55;;;2.55;;
15002;SDS011;7597;53.590;10.020;2022-08-04T12:32:38;3.15;;;2.67;;
15002;SDS011;7597;53.590;10.020;2022-08-04T12:35:08;2.75;;;2.55;;
15002;SDS011;7597;53.590;10.020;2022-08-04T12:37:43;3.30;;;2.28;;
15002;SDS011;7597;53.590;10.020;2022-08-04T12:40:07;2.80;;;2.60;;
15002;SDS011;7597;53.590;10.020;2022-08-04T12:45:26;2.95;;;2.40;;
15002;SDS011;7597;53.590;10.020;2022-08-04T12:47:55;3.00;;;2.60;;
15002;SDS011;7597;53.590;10.020;2022-08-04T12:50:19;2.72;;;2.53;;
15002;SDS011;7597;53.590;10.020;2022-08-04T12:52:47;4.32;;;2.80;;
15002;SDS011;7597;53.590;10.020;2022-08-04T12:55:13;3.28;;;2.70;;
15002;SDS011;7597;53.590;10.020;2022-08-04T12:57:39;2.90;;;2.70;;
15002;SDS011;7597;53.590;10.020;2022-08-04T13:00:06;5.32;;;2.62;;
15002;SDS011;7597;53.590;10.020;2022-08-04T13:02:36;4.15;;;2.37;;
15002;SDS011;7597;53.590;10.020;2022-08-04T13:05:02;4.78;;;3.00;;
15002;SDS011;7597;53.590;10.020;2022-08-04T13:07:27;6.15;;;2.80;;
15002;SDS011;7597;53.590;10.020;2022-08-04T13:09:54;4.75;;;2.92;;
15002;SDS011;7597;53.590;10.020;2022-08-04T13:12:22;7.62;;;2.90;;
15002;SDS011;7597;53.590;10.020;2022-08-04T13:14:48;4.10;;;2.60;;
15002;SDS011;7597;53.590;10.020;2022-08-04T13:17:15;2.90;;;2.70;;
15002;SDS011;7597;53.590;10.020;2022-08-04T13:19:46;3.15;;;2.50;;
15002;SDS011;7597;53.590;10.020;2022-08-04T13:24:49;3.05;;;2.85;;
15002;SDS011;7597;53.590;10.020;2022-08-04T13:27:16;4.18;;;2.90;;
15002;SDS011;7597;53.590;10.020;2022-08-04T13:29:44;3.45;;;2.78;;
15002;SDS011;7597;53.590;10.020;2022-08-04T13:32:15;4.12;;;3.03;;
15002;SDS011;7597;53.590;10.020;2022-08-04T13:34:43;3.90;;;2.60;;
15002;SDS011;7597;53.590;10.020;2022-08-04T13:37:10;3.12;;;2.83;;
15002;SDS011;7597;53.590;10.020;2022-08-04T13:39:44;3.08;;;2.87;;
15002;SDS011;7597;53.590;10.020;2022-08-04T13:42:23;3.83;;;2.67;;
15002;SDS011;7597;53.590;10.020;2022-08-04T13:44:52;3.47;;;2.75;;
15002;SDS011;7597;53.590;10.020;2022-08-04T13:47:21;3.15;;;2.92;;
15002;SDS011;7597;53.590;10.020;2022-08-04T13:52:28;3.15;;;2.65;;
15002;SDS011;7597;53.590;10.020;2022-08-04T13:54:57;3.55;;;2.85;;
15002;SDS011;7597;53.590;10.020;2022-08-04T13:57:30;3.95;;;2.50;;
15002;SDS011;7597;53.590;10.020;2022-08-04T13:59:58;4.35;;;2.60;;
15002;SDS011;7597;53.590;10.020;2022-08-04T14:07:52;2.92;;;2.58;;
15002;SDS011;7597;53.590;10.020;2022-08-04T14:10:16;2.70;;;2.50;;
15002;SDS011;7597;53.590;10.020;2022-08-04T14:12:45;3.00;;;2.70;;
15002;SDS011;7597;53.590;10.020;2022-08-04T14:15:42;5.70;;;3.00;;
15002;SDS011;7597;53.590;10.020;2022-08-04T14:17:54;3.12;;;2.83;;
15002;SDS011;7597;53.590;10.020;2022-08-04T14:20:21;4.20;;;3.08;;
15002;SDS011;7597;53.590;10.020;2022-08-04T14:22:48;4.72;;;2.65;;
15002;SDS011;7597;53.590;10.020;2022-08-04T14:25:15;3.03;;;2.58;;
15002;SDS011;7597;53.590;10.020;2022-08-04T14:27:49;3.12;;;2.83;;
15002;SDS011;7597;53.590;10.020;2022-08-04T14:33:03;2.75;;;2.53;;
15002;SDS011;7597;53.590;10.020;2022-08-04T14:35:30;4.85;;;2.70;;
15002;SDS011;7597;53.590;10.020;2022-08-04T14:37:58;4.00;;;2.90;;
15002;SDS011;7597;53.590;10.020;2022-08-04T14:40:25;5.00;;;2.60;;
15002;SDS011;7597;53.590;10.020;2022-08-04T14:42:52;2.87;;;2.67;;
15002;SDS011;7597;53.590;10.020;2022-08-04T14:45:26;3.05;;;2.62;;
15002;SDS011;7597;53.590;10.020;2022-08-04T14:47:51;4.18;;;2.60;;
15002;SDS011;7597;53.590;10.020;2022-08-04T14:50:18;3.70;;;2.75;;
15002;SDS011;7597;53.590;10.020;2022-08-04T14:52:45;5.00;;;3.17;;
15002;SDS011;7597;53.590;10.020;2022-08-04T14:55:15;3.90;;;2.95;;
15002;SDS011;7597;53.590;10.020;2022-08-04T14:57:43;3.97;;;3.40;;
15002;SDS011;7597;53.590;10.020;2022-08-04T15:00:11;3.90;;;3.30;;
15002;SDS011;7597;53.590;10.020;2022-08-04T15:02:38;8.38;;;4.12;;
15002;SDS011;7597;53.590;10.020;2022-08-04T15:05:05;7.60;;;3.72;;
15002;SDS011;7597;53.590;10.020;2022-08-04T15:07:31;8.68;;;4.00;;
15002;SDS011;7597;53.590;10.020;2022-08-04T15:09:58;10.27;;;4.93;;
15002;SDS011;7597;53.590;10.020;2022-08-04T15:12:25;8.00;;;5.43;;
15002;SDS011;7597;53.590;10.020;2022-08-04T15:14:53;9.80;;;5.35;;
15002;SDS011;7597;53.590;10.020;2022-08-04T15:17:19;13.73;;;6.03;;
15002;SDS011;7597;53.590;10.020;2022-08-04T15:19:46;6.87;;;5.22;;
15002;SDS011;7597;53.590;10.020;2022-08-04T15:22:13;7.82;;;4.90;;
15002;SDS011;7597;53.590;10.020;2022-08-04T15:24:39;6.87;;;4.78;;
15002;SDS011;7597;53.590;10.020;2022-08-04T15:27:06;10.88;;;4.90;;
15002;SDS011;7597;53.590;10.020;2022-08-04T15:29:36;7.45;;;4.47;;
15002;SDS011;7597;53.590;10.020;2022-08-04T15:32:03;8.05;;;4.75;;
15002;SDS011;7597;53.590;10.020;2022-08-04T15:37:10;11.60;;;4.80;;
15002;SDS011;7597;53.590;10.020;2022-08-04T15:39:43;7.90;;;4.00;;
15002;SDS011;7597;53.590;10.020;2022-08-04T15:42:12;9.38;;;4.37;;
15002;SDS011;7597;53.590;10.020;2022-08-04T15:44:47;13.40;;;5.00;;
15002;SDS011;7597;53.590;10.020;2022-08-04T15:47:27;9.98;;;4.95;;
15002;SDS011;7597;53.590;10.020;2022-08-04T15:50:03;10.77;;;4.60;;
15002;SDS011;7597;53.590;10.020;2022-08-04T15:53:13;6.50;;;4.65;;
15002;SDS011;7597;53.590;10.020;2022-08-04T15:55:33;12.45;;;4.57;;
15002;SDS011;7597;53.590;10.020;2022-08-04T15:57:59;8.85;;;4.60;;
15002;SDS011;7597;53.590;10.020;2022-08-04T16:00:26;12.57;;;4.78;;
15002;SDS011;7597;53.590;10.020;2022-08-04T16:02:52;12.75;;;5.82;;
15002;SDS011;7597;53.590;10.020;2022-08-04T16:08:08;9.43;;;4.53;;
15002;SDS011;7597;53.590;10.020;2022-08-04T16:10:35;9.93;;;5.32;;
15002;SDS011;7597;53.590;10.020;2022-08-04T16:13:04;8.48;;;4.90;;
15002;SDS011;7597;53.590;10.020;2022-08-04T16:15:37;7.87;;;5.30;;
15002;SDS011;7597;53.590;10.020;2022-08-04T16:18:03;10.65;;;5.20;;
15002;SDS011;7597;53.590;10.020;2022-08-04T16:20:30;11.43;;;6.22;;
15002;SDS011;7597;53.590;10.020;2022-08-04T16:22:57;13.15;;;6.12;;
15002;SDS011;7597;53.590;10.020;2022-08-04T16:28:05;10.75;;;5.60;;
15002;SDS011;7597;53.590;10.020;2022-08-04T16:30:38;8.80;;;5.72;;
15002;SDS011;7597;53.590;10.020;2022-08-04T16:32:58;9.30;;;6.87;;
15002;SDS011;7597;53.590;10.020;2022-08-04T16:35:26;10.57;;;5.50;;
15002;SDS011;7597;53.590;10.020;2022-08-04T16:37:53;10.98;;;6.55;;
15002;SDS011;7597;53.590;10.020;2022-08-04T16:40:25;8.85;;;5.87;;
15002;SDS011;7597;53.590;10.020;2022-08-04T16:42:59;8.93;;;6.40;;
15002;SDS011;7597;53.590;10.020;2022-08-04T16:48:05;9.82;;;6.50;;
15002;SDS011;7597;53.590;10.020;2022-08-04T16:50:31;9.18;;;5.50;;
15002;SDS011;7597;53.590;10.020;2022-08-04T16:52:58;7.50;;;5.20;;
15002;SDS011;7597;53.590;10.020;2022-08-04T16:55:26;11.65;;;5.45;;
15002;SDS011;7597;53.590;10.020;2022-08-04T16:57:53;10.90;;;5.35;;
15002;SDS011;7597;53.590;10.020;2022-08-04T17:02:53;9.55;;;6.15;;
15002;SDS011;7597;53.590;10.020;2022-08-04T17:05:21;11.95;;;5.62;;
15002;SDS011;7597;53.590;10.020;2022-08-04T17:07:48;8.93;;;6.40;;
15002;SDS011;7597;53.590;10.020;2022-08-04T17:10:15;10.05;;;5.40;;
15002;SDS011;7597;53.590;10.020;2022-08-04T17:12:46;8.85;;;5.70;;
15002;SDS011;7597;53.590;10.020;2022-08-04T17:15:20;6.40;;;5.20;;
15002;SDS011;7597;53.590;10.020;2022-08-04T17:17:47;8.27;;;5.35;;
15002;SDS011;7597;53.590;10.020;2022-08-04T17:20:15;9.07;;;4.90;;